sensor_id;sensor_type;location;lat;lon;timestamp;pressure;altitude;pressure_sealevel;temperature;humidity
74372;BME280;62885;51.374;6.170;2023-04-25T00:00:30;100744.13;;;7.18;83.87
74372;BME280;62885;51.374;6.170;2023-04-25T00:02:55;100739.09;;;7.13;83.67
74372;BME280;62885;51.374;6.170;2023-04-25T00:05:22;100745.66;;;7.08;84.26
74372;BME280;62885;51.374;6.170;2023-04-25T00:07:48;100742.13;;;7.07;84.21
74372;BME280;62885;51.374;6.170;2023-04-25T00:10:15;100731.47;;;7.07;83.83
74372;BME280;62885;51.374;6.170;2023-04-25T00:12:40;100740.88;;;7.13;84.05
74372;BME280;62885;51.374;6.170;2023-04-25T00:15:07;100742.69;;;7.12;84.47
74372;BME280;62885;51.374;6.170;2023-04-25T00:17:32;100742.97;;;7.08;84.76
74372;BME280;62885;51.374;6.170;2023-04-25T00:19:58;100745.34;;;7.12;84.32
74372;BME280;62885;51.374;6.170;2023-04-25T00:22:23;100749.81;;;7.12;84.70
74372;BME280;62885;51.374;6.170;2023-04-25T00:24:49;100749.09;;;7.10;84.71
74372;BME280;62885;51.374;6.170;2023-04-25T00:27:14;100756.09;;;7.11;84.59
74372;BME280;62885;51.374;6.170;2023-04-25T00:29:40;100754.19;;;7.13;84.88
74372;BME280;62885;51.374;6.170;2023-04-25T00:32:05;100752.84;;;7.06;84.93
74372;BME280;62885;51.374;6.170;2023-04-25T00:34:30;100758.38;;;7.03;84.77
74372;BME280;62885;51.374;6.170;2023-04-25T00:36:56;100751.34;;;7.01;85.57
74372;BME280;62885;51.374;6.170;2023-04-25T00:39:22;100748.09;;;6.96;85.33
74372;BME280;62885;51.374;6.170;2023-04-25T00:41:47;100752.50;;;6.97;85.25
74372;BME280;62885;51.374;6.170;2023-04-25T00:44:14;100751.13;;;6.90;85.96
74372;BME280;62885;51.374;6.170;2023-04-25T00:46:42;100751.31;;;6.87;86.27
74372;BME280;62885;51.374;6.170;2023-04-25T00:49:07;100751.78;;;6.94;86.16
74372;BME280;62885;51.374;6.170;2023-04-25T00:51:33;100748.03;;;6.98;86.18
74372;BME280;62885;51.374;6.170;2023-04-25T00:53:59;100749.03;;;6.95;85.75
74372;BME280;62885;51.374;6.170;2023-04-25T00:56:25;100749.81;;;6.97;86.37
74372;BME280;62885;51.374;6.170;2023-04-25T00:58:53;100750.47;;;7.01;85.92
74372;BME280;62885;51.374;6.170;2023-04-25T01:01:21;100756.94;;;6.97;86.31
74372;BME280;62885;51.374;6.170;2023-04-25T01:03:47;100752.84;;;6.91;86.38
74372;BME280;62885;51.374;6.170;2023-04-25T01:06:15;100753.88;;;6.89;86.56
74372;BME280;62885;51.374;6.170;2023-04-25T01:08:41;100754.56;;;6.92;86.50
74372;BME280;62885;51.374;6.170;2023-04-25T01:11:06;100757.03;;;6.95;86.68
74372;BME280;62885;51.374;6.170;2023-04-25T01:13:32;100756.16;;;6.95;86.63
74372;BME280;62885;51.374;6.170;2023-04-25T01:15:59;100752.84;;;6.91;87.06
74372;BME280;62885;51.374;6.170;2023-04-25T01:18:24;100761.31;;;6.98;86.60
74372;BME280;62885;51.374;6.170;2023-04-25T01:20:53;100754.00;;;7.01;86.72
74372;BME280;62885;51.374;6.170;2023-04-25T01:23:22;100755.81;;;7.01;86.47
74372;BME280;62885;51.374;6.170;2023-04-25T01:25:48;100750.56;;;6.99;86.83
74372;BME280;62885;51.374;6.170;2023-04-25T01:28:14;100750.94;;;6.93;86.77
74372;BME280;62885;51.374;6.170;2023-04-25T01:30:40;100761.22;;;6.99;86.93
74372;BME280;62885;51.374;6.170;2023-04-25T01:33:07;100758.91;;;6.93;87.04
74372;BME280;62885;51.374;6.170;2023-04-25T01:35:33;100763.88;;;6.99;86.94
74372;BME280;62885;51.374;6.170;2023-04-25T01:37:59;100758.56;;;6.99;86.87
74372;BME280;62885;51.374;6.170;2023-04-25T01:40:26;100758.66;;;6.98;87.27
74372;BME280;62885;51.374;6.170;2023-04-25T01:42:52;100762.94;;;7.00;87.32
74372;BME280;62885;51.374;6.170;2023-04-25T01:45:18;100765.38;;;6.89;87.44
74372;BME280;62885;51.374;6.170;2023-04-25T01:47:44;100763.00;;;6.85;87.87
74372;BME280;62885;51.374;6.170;2023-04-25T01:50:14;100769.84;;;6.89;88.23
74372;BME280;62885;51.374;6.170;2023-04-25T01:52:40;100770.63;;;6.91;87.68
74372;BME280;62885;51.374;6.170;2023-04-25T01:55:06;100768.75;;;6.93;87.60
74372;BME280;62885;51.374;6.170;2023-04-25T01:57:31;100776.97;;;6.88;87.96
74372;BME280;62885;51.374;6.170;2023-04-25T01:59:59;100778.78;;;6.88;88.09
74372;BME280;62885;51.374;6.170;2023-04-25T02:02:26;100779.91;;;6.84;88.54
74372;BME280;62885;51.374;6.170;2023-04-25T02:04:51;100782.28;;;6.74;88.69
74372;BME280;62885;51.374;6.170;2023-04-25T02:07:17;100789.41;;;6.74;88.82
74372;BME280;62885;51.374;6.170;2023-04-25T02:09:42;100788.53;;;6.73;88.99
74372;BME280;62885;51.374;6.170;2023-04-25T02:12:09;100793.00;;;6.73;89.20
74372;BME280;62885;51.374;6.170;2023-04-25T02:14:35;100780.56;;;6.73;88.88
74372;BME280;62885;51.374;6.170;2023-04-25T02:17:00;100786.03;;;6.70;89.28
74372;BME280;62885;51.374;6.170;2023-04-25T02:19:25;100789.47;;;6.72;89.30
74372;BME280;62885;51.374;6.170;2023-04-25T02:21:51;100791.47;;;6.69;89.02
74372;BME280;62885;51.374;6.170;2023-04-25T02:24:16;100791.72;;;6.64;89.30
74372;BME280;62885;51.374;6.170;2023-04-25T02:26:41;100792.69;;;6.63;89.62
74372;BME280;62885;51.374;6.170;2023-04-25T02:29:07;100799.03;;;6.60;89.99
74372;BME280;62885;51.374;6.170;2023-04-25T02:31:32;100787.88;;;6.54;89.84
74372;BME280;62885;51.374;6.170;2023-04-25T02:33:57;100793.41;;;6.51;90.10
74372;BME280;62885;51.374;6.170;2023-04-25T02:36:23;100793.75;;;6.45;90.38
74372;BME280;62885;51.374;6.170;2023-04-25T02:38:49;100799.06;;;6.45;90.61
74372;BME280;62885;51.374;6.170;2023-04-25T02:41:15;100806.19;;;6.44;90.44
74372;BME280;62885;51.374;6.170;2023-04-25T02:43:40;100796.69;;;6.40;90.52
74372;BME280;62885;51.374;6.170;2023-04-25T02:46:07;100803.03;;;6.38;90.84
74372;BME280;62885;51.374;6.170;2023-04-25T02:48:32;100799.84;;;6.31;91.09
74372;BME280;62885;51.374;6.170;2023-04-25T02:50:58;100799.56;;;6.36;91.36
74372;BME280;62885;51.374;6.170;2023-04-25T02:53:23;100797.91;;;6.35;91.32
74372;BME280;62885;51.374;6.170;2023-04-25T02:55:48;100798.91;;;6.32;91.27
74372;BME280;62885;51.374;6.170;2023-04-25T02:58:14;100796.31;;;6.31;91.51
74372;BME280;62885;51.374;6.170;2023-04-25T03:00:40;100800.56;;;6.35;91.43
74372;BME280;62885;51.374;6.170;2023-04-25T03:03:06;100802.50;;;6.31;91.47
74372;BME280;62885;51.374;6.170;2023-04-25T03:05:31;100798.06;;;6.32;91.69
74372;BME280;62885;51.374;6.170;2023-04-25T03:07:56;100803.97;;;6.37;91.55
74372;BME280;62885;51.374;6.170;2023-04-25T03:10:22;100796.16;;;6.34;91.46
74372;BME280;62885;51.374;6.170;2023-04-25T03:12:47;100793.88;;;6.28;91.70
74372;BME280;62885;51.374;6.170;2023-04-25T03:15:12;100794.97;;;6.24;91.87
74372;BME280;62885;51.374;6.170;2023-04-25T03:17:38;100792.06;;;6.12;92.28
74372;BME280;62885;51.374;6.170;2023-04-25T03:20:03;100792.84;;;6.14;92.42
74372;BME280;62885;51.374;6.170;2023-04-25T03:22:29;100792.91;;;6.13;92.03
74372;BME280;62885;51.374;6.170;2023-04-25T03:24:54;100792.91;;;6.13;92.57
74372;BME280;62885;51.374;6.170;2023-04-25T03:27:20;100801.22;;;6.07;92.55
74372;BME280;62885;51.374;6.170;2023-04-25T03:29:45;100795.91;;;6.07;93.06
74372;BME280;62885;51.374;6.170;2023-04-25T03:32:11;100793.53;;;6.02;93.49
74372;BME280;62885;51.374;6.170;2023-04-25T03:34:36;100796.09;;;6.04;93.11
74372;BME280;62885;51.374;6.170;2023-04-25T03:37:01;100796.38;;;5.99;93.42
74372;BME280;62885;51.374;6.170;2023-04-25T03:39:27;100799.50;;;6.06;93.19
74372;BME280;62885;51.374;6.170;2023-04-25T03:41:52;100802.69;;;5.97;93.52
74372;BME280;62885;51.374;6.170;2023-04-25T03:44:17;100798.38;;;5.94;93.86
74372;BME280;62885;51.374;6.170;2023-04-25T03:46:43;100803.25;;;5.86;93.84
74372;BME280;62885;51.374;6.170;2023-04-25T03:49:08;100806.84;;;5.85;93.76
74372;BME280;62885;51.374;6.170;2023-04-25T03:51:33;100815.06;;;5.81;94.35
74372;BME280;62885;51.374;6.170;2023-04-25T03:53:59;100820.38;;;5.81;94.18
74372;BME280;62885;51.374;6.170;2023-04-25T03:56:24;100818.75;;;5.78;94.09
74372;BME280;62885;51.374;6.170;2023-04-25T03:58:50;100818.00;;;5.76;94.24
74372;BME280;62885;51.374;6.170;2023-04-25T04:01:15;100822.53;;;5.74;93.88
74372;BME280;62885;51.374;6.170;2023-04-25T04:03:40;100825.00;;;5.77;93.78
74372;BME280;62885;51.374;6.170;2023-04-25T04:06:07;100824.56;;;5.69;94.46
74372;BME280;62885;51.374;6.170;2023-04-25T04:08:34;100824.38;;;5.72;93.94
74372;BME280;62885;51.374;6.170;2023-04-25T04:10:59;100825.09;;;5.75;93.54
74372;BME280;62885;51.374;6.170;2023-04-25T04:13:28;100825.19;;;5.74;93.59
74372;BME280;62885;51.374;6.170;2023-04-25T04:15:55;100832.47;;;5.70;93.30
74372;BME280;62885;51.374;6.170;2023-04-25T04:18:20;100835.13;;;5.70;93.60
74372;BME280;62885;51.374;6.170;2023-04-25T04:20:46;100840.31;;;5.72;92.96
74372;BME280;62885;51.374;6.170;2023-04-25T04:23:12;100827.03;;;5.72;92.96
74372;BME280;62885;51.374;6.170;2023-04-25T04:25:37;100832.22;;;5.75;92.94
74372;BME280;62885;51.374;6.170;2023-04-25T04:28:03;100828.16;;;5.68;93.10
74372;BME280;62885;51.374;6.170;2023-04-25T04:30:28;100827.03;;;5.72;92.53
74372;BME280;62885;51.374;6.170;2023-04-25T04:32:58;100833.97;;;5.59;92.63
74372;BME280;62885;51.374;6.170;2023-04-25T04:35:24;100843.78;;;5.74;92.47
74372;BME280;62885;51.374;6.170;2023-04-25T04:37:50;100838.19;;;5.78;92.13
74372;BME280;62885;51.374;6.170;2023-04-25T04:40:16;100837.75;;;5.88;90.93
74372;BME280;62885;51.374;6.170;2023-04-25T04:42:44;100840.91;;;5.94;90.37
74372;BME280;62885;51.374;6.170;2023-04-25T04:45:13;100844.88;;;6.03;89.57
74372;BME280;62885;51.374;6.170;2023-04-25T04:47:39;100853.19;;;6.12;89.09
74372;BME280;62885;51.374;6.170;2023-04-25T04:50:09;100853.56;;;6.22;87.79
74372;BME280;62885;51.374;6.170;2023-04-25T04:52:37;100861.41;;;6.55;86.66
74372;BME280;62885;51.374;6.170;2023-04-25T04:55:04;100854.63;;;6.65;85.02
74372;BME280;62885;51.374;6.170;2023-04-25T04:57:30;100862.13;;;7.04;84.35
74372;BME280;62885;51.374;6.170;2023-04-25T04:59:56;100861.69;;;7.26;82.75
74372;BME280;62885;51.374;6.170;2023-04-25T05:02:22;100866.88;;;7.13;82.15
74372;BME280;62885;51.374;6.170;2023-04-25T05:04:47;100867.09;;;6.94;82.98
74372;BME280;62885;51.374;6.170;2023-04-25T05:07:13;100862.75;;;6.78;83.92
74372;BME280;62885;51.374;6.170;2023-04-25T05:09:38;100872.53;;;6.77;83.94
74372;BME280;62885;51.374;6.170;2023-04-25T05:12:04;100872.81;;;6.73;82.83
74372;BME280;62885;51.374;6.170;2023-04-25T05:14:29;100882.09;;;6.66;83.52
74372;BME280;62885;51.374;6.170;2023-04-25T05:16:54;100880.56;;;6.62;83.65
74372;BME280;62885;51.374;6.170;2023-04-25T05:19:20;100875.16;;;6.63;83.24
74372;BME280;62885;51.374;6.170;2023-04-25T05:21:45;100885.69;;;6.65;82.79
74372;BME280;62885;51.374;6.170;2023-04-25T05:24:11;100885.94;;;6.60;82.90
74372;BME280;62885;51.374;6.170;2023-04-25T05:26:37;100899.09;;;6.63;83.05
74372;BME280;62885;51.374;6.170;2023-04-25T05:29:02;100899.44;;;6.57;82.73
74372;BME280;62885;51.374;6.170;2023-04-25T05:31:28;100904.22;;;6.66;83.21
74372;BME280;62885;51.374;6.170;2023-04-25T05:33:53;100908.00;;;6.62;83.12
74372;BME280;62885;51.374;6.170;2023-04-25T05:36:19;100915.72;;;6.67;83.54
74372;BME280;62885;51.374;6.170;2023-04-25T05:38:45;100914.88;;;6.66;83.59
74372;BME280;62885;51.374;6.170;2023-04-25T05:41:10;100922.94;;;6.65;83.47
74372;BME280;62885;51.374;6.170;2023-04-25T05:43:35;100920.19;;;6.66;83.53
74372;BME280;62885;51.374;6.170;2023-04-25T05:46:01;100921.38;;;6.60;84.73
74372;BME280;62885;51.374;6.170;2023-04-25T05:48:26;100923.78;;;6.65;83.81
74372;BME280;62885;51.374;6.170;2023-04-25T05:50:51;100919.50;;;6.63;83.79
74372;BME280;62885;51.374;6.170;2023-04-25T05:53:18;100930.41;;;6.74;83.86
74372;BME280;62885;51.374;6.170;2023-04-25T05:55:43;100930.22;;;6.77;83.04
74372;BME280;62885;51.374;6.170;2023-04-25T05:58:08;100926.00;;;7.04;81.74
74372;BME280;62885;51.374;6.170;2023-04-25T06:00:34;100931.13;;;7.07;81.53
74372;BME280;62885;51.374;6.170;2023-04-25T06:02:59;100931.16;;;6.91;81.66
74372;BME280;62885;51.374;6.170;2023-04-25T06:05:26;100937.78;;;6.84;81.18
74372;BME280;62885;51.374;6.170;2023-04-25T06:07:51;100937.69;;;6.86;81.27
74372;BME280;62885;51.374;6.170;2023-04-25T06:10:16;100945.84;;;6.98;81.54
74372;BME280;62885;51.374;6.170;2023-04-25T06:12:42;100939.94;;;7.53;78.58
74372;BME280;62885;51.374;6.170;2023-04-25T06:15:07;100941.06;;;8.07;75.76
74372;BME280;62885;51.374;6.170;2023-04-25T06:17:33;100946.22;;;9.33;70.97
74372;BME280;62885;51.374;6.170;2023-04-25T06:19:58;100944.50;;;11.32;63.30
74372;BME280;62885;51.374;6.170;2023-04-25T06:22:24;100950.09;;;11.64;60.09
74372;BME280;62885;51.374;6.170;2023-04-25T06:24:49;100950.31;;;10.29;63.91
74372;BME280;62885;51.374;6.170;2023-04-25T06:27:14;100957.88;;;9.72;67.20
74372;BME280;62885;51.374;6.170;2023-04-25T06:29:40;100957.63;;;9.75;67.36
74372;BME280;62885;51.374;6.170;2023-04-25T06:32:05;100967.16;;;9.92;67.24
74372;BME280;62885;51.374;6.170;2023-04-25T06:34:30;100964.97;;;9.46;67.29
74372;BME280;62885;51.374;6.170;2023-04-25T06:36:56;100966.34;;;9.12;69.36
74372;BME280;62885;51.374;6.170;2023-04-25T06:39:21;100978.31;;;8.65;71.39
74372;BME280;62885;51.374;6.170;2023-04-25T06:41:48;100967.44;;;8.26;71.72
74372;BME280;62885;51.374;6.170;2023-04-25T06:44:14;100970.00;;;7.99;71.60
74372;BME280;62885;51.374;6.170;2023-04-25T06:46:40;100974.00;;;8.06;72.21
74372;BME280;62885;51.374;6.170;2023-04-25T06:49:05;100983.88;;;7.90;73.46
74372;BME280;62885;51.374;6.170;2023-04-25T06:51:31;100979.91;;;8.68;72.23
74372;BME280;62885;51.374;6.170;2023-04-25T06:53:56;100974.38;;;10.16;66.55
74372;BME280;62885;51.374;6.170;2023-04-25T06:56:22;100981.94;;;10.97;61.53
74372;BME280;62885;51.374;6.170;2023-04-25T06:58:48;100986.84;;;9.90;64.02
74372;BME280;62885;51.374;6.170;2023-04-25T07:01:13;100981.13;;;8.91;67.63
74372;BME280;62885;51.374;6.170;2023-04-25T07:03:39;100981.31;;;8.88;69.06
74372;BME280;62885;51.374;6.170;2023-04-25T07:06:07;100984.25;;;8.42;69.18
74372;BME280;62885;51.374;6.170;2023-04-25T07:08:32;100981.75;;;8.53;69.99
74372;BME280;62885;51.374;6.170;2023-04-25T07:10:57;100983.97;;;8.33;70.24
74372;BME280;62885;51.374;6.170;2023-04-25T07:13:23;100979.56;;;8.32;70.93
74372;BME280;62885;51.374;6.170;2023-04-25T07:15:48;100986.34;;;8.37;70.55
74372;BME280;62885;51.374;6.170;2023-04-25T07:18:14;100983.38;;;8.42;69.98
74372;BME280;62885;51.374;6.170;2023-04-25T07:20:40;100983.34;;;8.70;69.57
74372;BME280;62885;51.374;6.170;2023-04-25T07:23:05;100994.63;;;8.47;68.53
74372;BME280;62885;51.374;6.170;2023-04-25T07:25:31;100998.88;;;8.21;69.42
74372;BME280;62885;51.374;6.170;2023-04-25T07:27:56;100996.38;;;8.18;70.09
74372;BME280;62885;51.374;6.170;2023-04-25T07:30:22;101001.28;;;8.40;68.98
74372;BME280;62885;51.374;6.170;2023-04-25T07:32:48;101014.34;;;8.30;71.07
74372;BME280;62885;51.374;6.170;2023-04-25T07:35:13;101012.53;;;8.31;70.66
74372;BME280;62885;51.374;6.170;2023-04-25T07:37:39;101013.91;;;8.22;70.35
74372;BME280;62885;51.374;6.170;2023-04-25T07:40:05;101017.78;;;8.32;70.03
74372;BME280;62885;51.374;6.170;2023-04-25T07:42:31;101016.81;;;8.33;69.21
74372;BME280;62885;51.374;6.170;2023-04-25T07:44:57;101020.53;;;8.45;68.64
74372;BME280;62885;51.374;6.170;2023-04-25T07:47:24;101019.59;;;8.32;68.30
74372;BME280;62885;51.374;6.170;2023-04-25T07:49:50;101022.19;;;8.17;69.12
74372;BME280;62885;51.374;6.170;2023-04-25T07:52:16;101019.81;;;8.27;68.71
74372;BME280;62885;51.374;6.170;2023-04-25T07:54:41;101026.66;;;8.33;68.08
74372;BME280;62885;51.374;6.170;2023-04-25T07:57:06;101029.16;;;8.20;67.78
74372;BME280;62885;51.374;6.170;2023-04-25T07:59:32;101025.97;;;8.43;66.88
74372;BME280;62885;51.374;6.170;2023-04-25T08:01:57;101029.69;;;8.55;67.18
74372;BME280;62885;51.374;6.170;2023-04-25T08:04:23;101034.66;;;8.61;66.48
74372;BME280;62885;51.374;6.170;2023-04-25T08:06:49;101043.47;;;8.33;66.75
74372;BME280;62885;51.374;6.170;2023-04-25T08:09:15;101040.06;;;8.59;68.71
74372;BME280;62885;51.374;6.170;2023-04-25T08:11:41;101041.50;;;8.79;67.25
74372;BME280;62885;51.374;6.170;2023-04-25T08:14:07;101046.38;;;8.73;66.72
74372;BME280;62885;51.374;6.170;2023-04-25T08:16:32;101059.81;;;8.71;66.18
74372;BME280;62885;51.374;6.170;2023-04-25T08:18:59;101060.19;;;8.79;66.62
74372;BME280;62885;51.374;6.170;2023-04-25T08:21:25;101067.13;;;8.82;65.54
74372;BME280;62885;51.374;6.170;2023-04-25T08:23:52;101064.16;;;8.86;66.08
74372;BME280;62885;51.374;6.170;2023-04-25T08:26:17;101061.78;;;8.82;64.33
74372;BME280;62885;51.374;6.170;2023-04-25T08:28:42;101073.44;;;8.67;64.79
74372;BME280;62885;51.374;6.170;2023-04-25T08:31:08;101075.81;;;8.57;65.43
74372;BME280;62885;51.374;6.170;2023-04-25T08:33:33;101077.25;;;8.48;65.46
74372;BME280;62885;51.374;6.170;2023-04-25T08:35:59;101081.81;;;8.46;67.07
74372;BME280;62885;51.374;6.170;2023-04-25T08:38:24;101080.09;;;8.74;66.15
74372;BME280;62885;51.374;6.170;2023-04-25T08:40:50;101088.38;;;8.69;64.28
74372;BME280;62885;51.374;6.170;2023-04-25T08:43:19;101091.81;;;8.85;64.32
74372;BME280;62885;51.374;6.170;2023-04-25T08:45:45;101089.91;;;9.01;63.33
74372;BME280;62885;51.374;6.170;2023-04-25T08:48:12;101097.50;;;9.22;64.52
74372;BME280;62885;51.374;6.170;2023-04-25T08:53:12;101107.84;;;9.14;62.63
74372;BME280;62885;51.374;6.170;2023-04-25T08:55:43;101093.22;;;9.05;60.09
74372;BME280;62885;51.374;6.170;2023-04-25T08:58:09;101103.16;;;9.03;59.01
74372;BME280;62885;51.374;6.170;2023-04-25T09:00:35;101106.84;;;9.15;58.03
74372;BME280;62885;51.374;6.170;2023-04-25T09:03:01;101119.25;;;9.30;59.93
74372;BME280;62885;51.374;6.170;2023-04-25T09:05:28;101122.88;;;9.29;59.40
74372;BME280;62885;51.374;6.170;2023-04-25T09:07:53;101129.69;;;9.06;58.89
74372;BME280;62885;51.374;6.170;2023-04-25T09:10:19;101125.47;;;9.16;58.78
74372;BME280;62885;51.374;6.170;2023-04-25T09:12:44;101132.44;;;9.19;59.20
74372;BME280;62885;51.374;6.170;2023-04-25T09:15:12;101128.16;;;9.02;57.58
74372;BME280;62885;51.374;6.170;2023-04-25T09:17:37;101132.25;;;9.07;58.00
74372;BME280;62885;51.374;6.170;2023-04-25T09:20:11;101134.28;;;8.90;56.78
74372;BME280;62885;51.374;6.170;2023-04-25T09:22:37;101148.47;;;8.90;60.00
74372;BME280;62885;51.374;6.170;2023-04-25T09:25:10;101152.47;;;9.12;61.95
74372;BME280;62885;51.374;6.170;2023-04-25T09:27:49;101159.72;;;8.95;60.65
74372;BME280;62885;51.374;6.170;2023-04-25T09:30:18;101166.59;;;8.99;59.78
74372;BME280;62885;51.374;6.170;2023-04-25T09:32:56;101165.06;;;9.10;60.56
74372;BME280;62885;51.374;6.170;2023-04-25T09:35:25;101170.22;;;9.13;59.06
74372;BME280;62885;51.374;6.170;2023-04-25T09:37:51;101166.69;;;9.12;58.55
74372;BME280;62885;51.374;6.170;2023-04-25T09:40:17;101165.06;;;9.24;58.09
74372;BME280;62885;51.374;6.170;2023-04-25T09:42:43;101178.97;;;9.15;58.67
74372;BME280;62885;51.374;6.170;2023-04-25T09:45:12;101182.13;;;9.35;58.67
74372;BME280;62885;51.374;6.170;2023-04-25T09:47:38;101173.63;;;9.29;59.87
74372;BME280;62885;51.374;6.170;2023-04-25T09:50:13;101173.91;;;9.38;58.40
74372;BME280;62885;51.374;6.170;2023-04-25T09:52:40;101174.44;;;9.58;58.16
74372;BME280;62885;51.374;6.170;2023-04-25T09:55:05;101183.50;;;9.69;58.40
74372;BME280;62885;51.374;6.170;2023-04-25T09:57:31;101177.59;;;9.64;59.01
74372;BME280;62885;51.374;6.170;2023-04-25T10:00:00;101177.44;;;9.80;58.57
74372;BME280;62885;51.374;6.170;2023-04-25T10:02:27;101179.81;;;9.84;58.22
74372;BME280;62885;51.374;6.170;2023-04-25T10:04:54;101180.09;;;9.94;56.42
74372;BME280;62885;51.374;6.170;2023-04-25T10:07:24;101178.81;;;10.00;55.25
74372;BME280;62885;51.374;6.170;2023-04-25T10:09:55;101182.59;;;9.83;56.22
74372;BME280;62885;51.374;6.170;2023-04-25T10:12:24;101188.56;;;10.01;54.84
74372;BME280;62885;51.374;6.170;2023-04-25T10:14:50;101184.16;;;10.00;54.84
74372;BME280;62885;51.374;6.170;2023-04-25T10:17:16;101193.56;;;9.93;55.99
74372;BME280;62885;51.374;6.170;2023-04-25T10:19:43;101191.69;;;10.07;54.41
74372;BME280;62885;51.374;6.170;2023-04-25T10:22:22;101201.31;;;10.24;54.53
74372;BME280;62885;51.374;6.170;2023-04-25T10:24:51;101187.72;;;10.27;52.09
74372;BME280;62885;51.374;6.170;2023-04-25T10:27:17;101191.16;;;10.15;53.42
74372;BME280;62885;51.374;6.170;2023-04-25T10:29:43;101185.75;;;10.16;53.45
74372;BME280;62885;51.374;6.170;2023-04-25T10:32:09;101185.72;;;10.31;52.21
74372;BME280;62885;51.374;6.170;2023-04-25T10:34:39;101187.75;;;10.40;53.58
74372;BME280;62885;51.374;6.170;2023-04-25T10:37:10;101187.81;;;10.25;49.74
74372;BME280;62885;51.374;6.170;2023-04-25T10:39:40;101196.41;;;10.31;49.71
74372;BME280;62885;51.374;6.170;2023-04-25T10:42:07;101209.34;;;10.10;48.18
74372;BME280;62885;51.374;6.170;2023-04-25T10:44:37;101196.03;;;9.96;48.74
74372;BME280;62885;51.374;6.170;2023-04-25T10:47:06;101199.28;;;10.01;50.38
74372;BME280;62885;51.374;6.170;2023-04-25T10:49:38;101193.56;;;9.93;51.01
74372;BME280;62885;51.374;6.170;2023-04-25T10:52:16;101219.03;;;9.57;53.53
74372;BME280;62885;51.374;6.170;2023-04-25T10:54:46;101225.06;;;9.18;56.99
74372;BME280;62885;51.374;6.170;2023-04-25T10:57:39;101231.88;;;8.80;60.26
74372;BME280;62885;51.374;6.170;2023-04-25T11:00:10;101239.88;;;8.65;59.71
74372;BME280;62885;51.374;6.170;2023-04-25T11:02:38;101233.84;;;8.62;60.34
74372;BME280;62885;51.374;6.170;2023-04-25T11:05:05;101240.91;;;8.63;60.46
74372;BME280;62885;51.374;6.170;2023-04-25T11:10:02;101227.56;;;8.63;61.58
74372;BME280;62885;51.374;6.170;2023-04-25T11:12:30;101228.75;;;8.87;60.69
74372;BME280;62885;51.374;6.170;2023-04-25T11:15:04;101216.09;;;9.05;58.49
74372;BME280;62885;51.374;6.170;2023-04-25T11:17:30;101219.53;;;9.21;55.07
74372;BME280;62885;51.374;6.170;2023-04-25T11:19:56;101213.91;;;9.26;52.93
74372;BME280;62885;51.374;6.170;2023-04-25T11:22:21;101210.06;;;9.44;52.12
74372;BME280;62885;51.374;6.170;2023-04-25T11:24:47;101212.25;;;9.66;51.54
74372;BME280;62885;51.374;6.170;2023-04-25T11:27:12;101217.94;;;9.88;51.41
74372;BME280;62885;51.374;6.170;2023-04-25T11:29:40;101213.03;;;9.95;51.74
74372;BME280;62885;51.374;6.170;2023-04-25T11:32:06;101210.94;;;9.85;51.31
74372;BME280;62885;51.374;6.170;2023-04-25T11:34:32;101213.38;;;10.03;51.31
74372;BME280;62885;51.374;6.170;2023-04-25T11:36:59;101211.25;;;10.08;51.66
74372;BME280;62885;51.374;6.170;2023-04-25T11:39:25;101205.72;;;10.11;51.59
74372;BME280;62885;51.374;6.170;2023-04-25T11:41:51;101211.63;;;10.16;49.11
74372;BME280;62885;51.374;6.170;2023-04-25T11:44:20;101218.16;;;10.39;47.91
74372;BME280;62885;51.374;6.170;2023-04-25T11:46:45;101219.00;;;10.39;48.12
74372;BME280;62885;51.374;6.170;2023-04-25T11:49:12;101217.25;;;10.65;47.89
74372;BME280;62885;51.374;6.170;2023-04-25T11:51:44;101219.38;;;10.73;46.18
74372;BME280;62885;51.374;6.170;2023-04-25T11:54:12;101221.66;;;10.79;47.04
74372;BME280;62885;51.374;6.170;2023-04-25T11:56:45;101226.72;;;11.08;44.66
74372;BME280;62885;51.374;6.170;2023-04-25T11:59:11;101223.38;;;11.30;45.83
74372;BME280;62885;51.374;6.170;2023-04-25T12:01:39;101222.75;;;11.27;45.29
74372;BME280;62885;51.374;6.170;2023-04-25T12:04:22;101240.19;;;10.69;50.33
74372;BME280;62885;51.374;6.170;2023-04-25T12:06:53;101235.13;;;9.84;53.21
74372;BME280;62885;51.374;6.170;2023-04-25T12:09:27;101240.03;;;9.63;55.56
74372;BME280;62885;51.374;6.170;2023-04-25T12:11:54;101263.63;;;9.14;61.22
74372;BME280;62885;51.374;6.170;2023-04-25T12:14:31;101255.00;;;8.95;65.10
74372;BME280;62885;51.374;6.170;2023-04-25T12:17:00;101252.22;;;8.82;66.81
74372;BME280;62885;51.374;6.170;2023-04-25T12:19:29;101253.72;;;8.86;64.31
74372;BME280;62885;51.374;6.170;2023-04-25T12:21:57;101262.28;;;9.07;63.57
74372;BME280;62885;51.374;6.170;2023-04-25T12:24:25;101252.81;;;9.16;61.70
74372;BME280;62885;51.374;6.170;2023-04-25T12:27:04;101259.13;;;9.15;59.62
74372;BME280;62885;51.374;6.170;2023-04-25T12:29:32;101262.09;;;9.24;59.81
74372;BME280;62885;51.374;6.170;2023-04-25T12:31:57;101261.44;;;9.35;57.66
74372;BME280;62885;51.374;6.170;2023-04-25T12:34:23;101263.63;;;9.42;56.89
74372;BME280;62885;51.374;6.170;2023-04-25T12:36:50;101267.22;;;9.56;54.45
74372;BME280;62885;51.374;6.170;2023-04-25T12:39:20;101261.22;;;9.52;54.71
74372;BME280;62885;51.374;6.170;2023-04-25T12:41:47;101263.13;;;9.64;55.88
74372;BME280;62885;51.374;6.170;2023-04-25T12:44:13;101271.63;;;9.71;55.81
74372;BME280;62885;51.374;6.170;2023-04-25T12:46:39;101271.03;;;9.80;55.75
74372;BME280;62885;51.374;6.170;2023-04-25T12:49:06;101280.66;;;9.97;56.13
74372;BME280;62885;51.374;6.170;2023-04-25T12:51:35;101278.91;;;10.10;57.05
74372;BME280;62885;51.374;6.170;2023-04-25T12:54:02;101280.25;;;10.17;53.72
74372;BME280;62885;51.374;6.170;2023-04-25T12:56:28;101274.19;;;10.13;53.71
74372;BME280;62885;51.374;6.170;2023-04-25T12:58:54;101278.25;;;10.20;54.29
74372;BME280;62885;51.374;6.170;2023-04-25T13:01:20;101283.75;;;10.32;54.69